Time;durP1;ratioP1;P1;durP2;ratioP2;P2;SDS_P1;SDS_P2;PMS_P1;PMS_P2;Temp;Humidity;BMP_temperature;BMP_pressure;BME280_temperature;BME280_humidity;BME280_pressure;Samples;Min_cycle;Max_cycle;Signal;HPM_P1;HPM_P2
2022/06/23 04:26:38;;;;;;;;;;;26.60;99.90;;;;;;5995882;23;20319;-86
2022/06/23 04:29:10;;;;;;;;;;;26.60;99.90;;;;;;4998819;28;19975;-87
2022/06/23 04:31:41;;;;;;;;;;;26.60;99.90;;;;;;4999986;28;19922;-87
2022/06/23 04:34:14;;;;;;;;;;;26.60;99.90;;;;;;4998350;28;19961;-87
2022/06/23 04:36:44;;;;;;;;;;;26.60;99.90;;;;;;4996214;28;20017;-88
2022/06/23 04:39:18;;;;;;;;;;;26.60;99.90;;;;;;4994407;28;20341;-87
2022/06/23 04:41:45;;;;;;;;;;;26.60;99.90;;;;;;4996499;28;19996;-88
2022/06/23 04:44:15;;;;;;;;;;;26.60;99.90;;;;;;5007720;28;20296;-81
2022/06/23 04:46:43;;;;;;;;;;;26.60;99.90;;;;;;5009100;28;19957;-82
2022/06/23 04:49:16;;;;;;;;;;;26.60;99.90;;;;;;5010370;28;19925;-82
2022/06/23 04:51:47;;;;;;;;;;;26.60;99.90;;;;;;5009145;28;19981;-82
2022/06/23 04:54:16;;;;;;;;;;;26.60;99.90;;;;;;5007231;28;19996;-85
2022/06/23 04:56:45;;;;;;;;;;;26.60;99.90;;;;;;5009762;28;19968;-84
2022/06/23 04:59:23;;;;;;;;;;;26.60;99.90;;;;;;5007829;28;19925;-83
2022/06/23 05:01:52;;;;;;;;;;;26.60;99.90;;;;;;5008497;28;19957;-83
2022/06/23 05:04:20;;;;;;;;;;;26.60;99.90;;;;;;5013695;28;19965;-85
2022/06/23 05:06:50;;;;;;;;;;;26.60;99.90;;;;;;5015548;28;19953;-84
2022/06/23 05:09:21;;;;;;;;;;;26.60;99.90;;;;;;5016337;28;19922;-83
2022/06/23 05:11:52;;;;;;;;;;;26.60;99.90;;;;;;5014684;28;19921;-84
2022/06/23 05:14:27;;;;;;;;;;;26.60;99.90;;;;;;5014723;28;19985;-86
2022/06/23 05:16:55;;;;;;;;;;;26.60;99.90;;;;;;5001845;28;19921;-86
2022/06/23 05:19:25;;;;;;;;;;;26.60;99.90;;;;;;5001063;28;19993;-85
2022/06/23 05:21:54;;;;;;;;;;;26.60;99.90;;;;;;5001447;28;20008;-85
2022/06/23 05:24:22;;;;;;;;;;;26.60;99.90;;;;;;5004343;28;19961;-85
2022/06/23 05:26:51;;;;;;;;;;;26.60;99.90;;;;;;5002070;28;20012;-85
2022/06/23 05:29:19;;;;;;;;;;;26.50;99.90;;;;;;5000296;28;20008;-85
2022/06/23 05:31:49;;;;;;;;;;;26.50;99.90;;;;;;5002577;28;19968;-84
2022/06/23 05:34:19;;;;;;;;;;;26.40;99.90;;;;;;4999459;28;19929;-82
2022/06/23 05:36:49;;;;;;;;;;;26.40;99.90;;;;;;4997825;28;20381;-83
2022/06/23 05:39:19;;;;;;;;;;;26.40;99.90;;;;;;4998614;28;20016;-84
2022/06/23 05:41:47;;;;;;;;;;;26.40;99.90;;;;;;4998978;28;19998;-83
2022/06/23 05:44:17;;;;;;;;;;;26.40;99.90;;;;;;4999137;28;20399;-81
2022/06/23 05:46:44;;;;;;;;;;;26.40;99.90;;;;;;5001533;28;19922;-83
2022/06/23 05:49:16;;;;;;;;;;;26.40;99.90;;;;;;5001933;28;20012;-83
2022/06/23 05:51:45;;;;;;;;;;;26.40;99.90;;;;;;4999561;28;20008;-83
2022/06/23 05:54:18;;;;;;;;;;;26.40;99.90;;;;;;4997737;28;20011;-83
2022/06/23 05:56:48;;;;;;;;;;;26.40;99.90;;;;;;4998290;28;19928;-83
2022/06/23 05:59:16;;;;;;;;;;;26.40;99.90;;;;;;4999663;28;20008;-84
2022/06/23 06:01:45;;;;;;;;;;;26.30;99.90;;;;;;5000175;28;20016;-84
2022/06/23 06:04:18;;;;;;;;;;;26.40;99.90;;;;;;5000957;28;20362;-83
2022/06/23 06:06:45;;;;;;;;;;;26.40;99.90;;;;;;5000254;28;19929;-83
2022/06/23 06:11:59;;;;;;;;;;;26.40;99.90;;;;;;5000424;28;19924;-84
2022/06/23 06:14:28;;;;;;;;;;;26.40;99.90;;;;;;5000262;28;20329;-84
2022/06/23 06:16:57;;;;;;;;;;;26.40;99.90;;;;;;5001136;28;19945;-84
2022/06/23 06:19:26;;;;;;;;;;;26.40;99.90;;;;;;5002609;28;19929;-84
2022/06/23 06:21:54;;;;;;;;;;;26.40;99.90;;;;;;5002059;28;20008;-84
2022/06/23 06:24:24;;;;;;;;;;;26.40;99.90;;;;;;5002969;28;19965;-84
2022/06/23 06:26:52;;;;;;;;;;;26.40;99.90;;;;;;5003804;28;19925;-84
2022/06/23 06:29:20;;;;;;;;;;;26.40;99.90;;;;;;5002938;28;19997;-84
2022/06/23 06:31:48;;;;;;;;;;;26.40;99.90;;;;;;5002133;28;20390;-84
2022/06/23 06:34:17;;;;;;;;;;;26.40;99.90;;;;;;5002011;28;19985;-83
2022/06/23 06:36:47;;;;;;;;;;;26.40;99.90;;;;;;5002231;28;20012;-83
2022/06/23 06:39:15;;;;;;;;;;;26.40;99.90;;;;;;5001608;28;19973;-83
2022/06/23 06:41:44;;;;;;;;;;;26.40;99.90;;;;;;5002119;28;20017;-83
2022/06/23 06:44:12;;;;;;;;;;;26.40;99.90;;;;;;5002068;28;20008;-83
2022/06/23 06:46:39;;;;;;;;;;;26.40;99.90;;;;;;5003941;28;19968;-85
2022/06/23 06:49:07;;;;;;;;;;;26.40;99.90;;;;;;5002776;28;20006;-85
2022/06/23 06:51:33;;;;;;;;;;;26.40;99.90;;;;;;5003283;28;20479;-85
2022/06/23 06:54:02;;;;;;;;;;;26.40;99.90;;;;;;5002630;28;20024;-85
2022/06/23 06:56:34;;;;;;;;;;;26.40;99.90;;;;;;5002202;28;20008;-85
2022/06/23 06:59:02;;;;;;;;;;;26.40;99.90;;;;;;5003316;28;20004;-85
2022/06/23 07:01:33;;;;;;;;;;;26.40;99.90;;;;;;5002920;28;19968;-85
2022/06/23 07:04:00;;;;;;;;;;;26.40;99.90;;;;;;5002589;28;19922;-85
2022/06/23 07:06:31;;;;;;;;;;;26.40;99.90;;;;;;5002607;28;19929;-85
2022/06/23 07:09:02;;;;;;;;;;;26.40;99.90;;;;;;5002772;28;20008;-85
2022/06/23 07:11:33;;;;;;;;;;;26.40;99.90;;;;;;5004315;28;19986;-85
2022/06/23 07:14:01;;;;;;;;;;;26.40;99.90;;;;;;5002790;28;19965;-85
2022/06/23 07:16:31;;;;;;;;;;;26.50;99.90;;;;;;5002751;28;20348;-85
2022/06/23 07:19:00;;;;;;;;;;;26.50;99.90;;;;;;5002571;28;20008;-85
2022/06/23 07:21:29;;;;;;;;;;;26.40;99.90;;;;;;5002187;28;19992;-85
2022/06/23 07:23:58;;;;;;;;;;;26.40;99.90;;;;;;5002436;28;20348;-85
2022/06/23 07:26:32;;;;;;;;;;;26.40;99.90;;;;;;5002295;28;20328;-85
2022/06/23 07:29:03;;;;;;;;;;;26.50;99.90;;;;;;5003158;28;19997;-85
2022/06/23 07:31:32;;;;;;;;;;;26.50;99.90;;;;;;5002784;28;20290;-85
2022/06/23 07:34:01;;;;;;;;;;;26.50;99.90;;;;;;5002813;28;20008;-85
2022/06/23 07:36:32;;;;;;;;;;;26.50;99.90;;;;;;5002932;28;20000;-85
2022/06/23 07:39:02;;;;;;;;;;;26.50;99.90;;;;;;5002526;28;20362;-85
2022/06/23 07:41:32;;;;;;;;;;;26.50;99.90;;;;;;5002118;28;19978;-85
2022/06/23 07:44:02;;;;;;;;;;;26.50;99.90;;;;;;5002615;28;19973;-85
2022/06/23 07:46:29;;;;;;;;;;;26.50;99.90;;;;;;5002221;28;20000;-85
2022/06/23 07:48:56;;;;;;;;;;;26.50;99.90;;;;;;5001970;28;19922;-85
2022/06/23 07:51:23;;;;;;;;;;;26.50;99.90;;;;;;5002165;28;19984;-86
2022/06/23 07:53:51;;;;;;;;;;;26.50;99.90;;;;;;5002252;28;19929;-86
2022/06/23 07:56:19;;;;;;;;;;;26.50;99.90;;;;;;5002234;28;20009;-86
2022/06/23 07:58:47;;;;;;;;;;;26.50;99.90;;;;;;5002110;28;20009;-85
2022/06/23 08:01:16;;;;;;;;;;;26.50;99.90;;;;;;5002196;28;20004;-85
2022/06/23 08:03:45;;;;;;;;;;;26.50;99.90;;;;;;5001704;28;19969;-85
2022/06/23 08:06:14;;;;;;;;;;;26.50;99.90;;;;;;5002264;28;20020;-86
2022/06/23 08:08:43;;;;;;;;;;;26.50;99.90;;;;;;5002192;28;19990;-86
2022/06/23 08:13:58;;;;;;;;;;;26.50;99.90;;;;;;5001599;28;19924;-86
2022/06/23 08:19:13;;;;;;;;;;;26.50;99.90;;;;;;5005775;28;19968;-85
2022/06/23 08:21:42;;;;;;;;;;;26.50;99.90;;;;;;5005493;28;19968;-85
2022/06/23 08:24:11;;;;;;;;;;;26.50;99.90;;;;;;5006120;28;19976;-85
2022/06/23 08:26:39;;;;;;;;;;;26.50;99.90;;;;;;5005442;28;19977;-85
2022/06/23 08:29:10;;;;;;;;;;;26.50;99.90;;;;;;5005408;28;19980;-85
2022/06/23 08:31:39;;;;;;;;;;;26.50;99.90;;;;;;5005394;28;20019;-85
2022/06/23 08:34:06;;;;;;;;;;;26.50;99.90;;;;;;5005515;28;19981;-85
2022/06/23 08:36:39;;;;;;;;;;;26.50;99.90;;;;;;5004853;28;20012;-85
2022/06/23 08:39:07;;;;;;;;;;;26.50;99.80;;;;;;5005426;28;19965;-85
2022/06/23 08:41:39;;;;;;;;;;;26.50;99.70;;;;;;5005201;28;19989;-85
2022/06/23 08:44:08;;;;;;;;;;;26.50;99.60;;;;;;5004777;28;20342;-85
2022/06/23 08:46:39;;;;;;;;;;;26.50;99.50;;;;;;5004946;28;19976;-85
2022/06/23 08:49:10;;;;;;;;;;;26.60;99.40;;;;;;5005645;28;20008;-85
2022/06/23 08:51:41;;;;;;;;;;;26.60;99.30;;;;;;5005041;28;20013;-85
2022/06/23 08:54:13;;;;;;;;;;;26.60;99.20;;;;;;5004998;28;20339;-85
2022/06/23 08:56:43;;;;;;;;;;;26.60;99.10;;;;;;5004656;28;19985;-85
2022/06/23 08:59:13;;;;;;;;;;;26.50;99.00;;;;;;5005021;28;19921;-85
2022/06/23 09:01:42;;;;;;;;;;;26.60;98.90;;;;;;5004607;28;19960;-85
2022/06/23 09:04:13;;;;;;;;;;;26.60;98.80;;;;;;5004066;28;19953;-85
2022/06/23 09:06:42;;;;;;;;;;;26.60;98.80;;;;;;5003779;28;19961;-85
2022/06/23 09:09:26;;;;;;;;;;;26.60;98.70;;;;;;5004132;28;20000;-85
2022/06/23 09:11:55;;;;;;;;;;;26.60;98.60;;;;;;5004959;28;19961;-85
2022/06/23 09:14:31;;;;;;;;;;;26.60;98.50;;;;;;5004152;28;20020;-85
2022/06/23 09:17:13;;;;;;;;;;;26.60;98.30;;;;;;5006339;28;19977;-85
2022/06/23 09:19:52;;;;;;;;;;;26.60;98.30;;;;;;5006707;28;20013;-85
2022/06/23 09:22:35;;;;;;;;;;;26.60;98.30;;;;;;5006861;28;19973;-85
2022/06/23 09:25:05;;;;;;;;;;;26.60;98.30;;;;;;5005720;28;19922;-85
2022/06/23 09:27:47;;;;;;;;;;;26.60;98.30;;;;;;5005461;28;20012;-85
2022/06/23 09:30:18;;;;;;;;;;;26.60;98.10;;;;;;5005854;28;19960;-85
2022/06/23 09:32:57;;;;;;;;;;;26.60;98.10;;;;;;5005416;28;19922;-85
2022/06/23 09:35:41;;;;;;;;;;;26.60;98.00;;;;;;5003923;28;19925;-85
2022/06/23 09:38:15;;;;;;;;;;;26.60;97.90;;;;;;4993406;28;19989;-85
2022/06/23 09:40:53;;;;;;;;;;;26.60;97.80;;;;;;5003760;28;20344;-85
2022/06/23 09:43:47;;;;;;;;;;;26.60;97.80;;;;;;5003700;28;19922;-85
2022/06/23 09:46:28;;;;;;;;;;;26.60;97.70;;;;;;4968619;28;19973;-85
2022/06/23 09:49:08;;;;;;;;;;;26.60;97.60;;;;;;5003430;28;19928;-85
2022/06/23 09:51:42;;;;;;;;;;;26.60;97.50;;;;;;5003809;28;20439;-85
2022/06/23 09:54:29;;;;;;;;;;;26.60;97.50;;;;;;5003835;28;19968;-85
2022/06/23 09:57:02;;;;;;;;;;;26.60;97.70;;;;;;5003688;28;19922;-85
2022/06/23 09:59:35;;;;;;;;;;;26.60;97.30;;;;;;5003810;28;19993;-84
2022/06/23 10:02:09;;;;;;;;;;;26.60;97.20;;;;;;5001989;28;19988;-85
2022/06/23 10:04:43;;;;;;;;;;;26.60;97.10;;;;;;5002794;28;20008;-85
2022/06/23 10:07:27;;;;;;;;;;;26.60;97.10;;;;;;5001881;28;20364;-85
2022/06/23 10:10:03;;;;;;;;;;;26.60;97.00;;;;;;4991871;28;20000;-85
2022/06/23 10:12:41;;;;;;;;;;;26.60;96.90;;;;;;5001992;28;19960;-85
2022/06/23 10:15:14;;;;;;;;;;;26.60;96.90;;;;;;5003787;28;19980;-85
2022/06/23 10:17:48;;;;;;;;;;;26.60;96.80;;;;;;5003081;28;19921;-85
2022/06/23 10:20:24;;;;;;;;;;;26.60;96.70;;;;;;5002171;28;19922;-85
2022/06/23 10:22:56;;;;;;;;;;;26.60;96.70;;;;;;5002882;28;19945;-85
2022/06/23 10:25:41;;;;;;;;;;;26.60;96.60;;;;;;5002275;28;20554;-85
2022/06/23 10:28:18;;;;;;;;;;;26.60;96.60;;;;;;4993142;28;19963;-85
2022/06/23 10:30:49;;;;;;;;;;;26.60;96.50;;;;;;5004212;28;19955;-84
2022/06/23 10:33:24;;;;;;;;;;;26.60;96.40;;;;;;5005282;28;19925;-84
2022/06/23 10:35:58;;;;;;;;;;;26.60;96.40;;;;;;5004852;28;19979;-86
2022/06/23 10:38:33;;;;;;;;;;;26.60;96.30;;;;;;5006009;28;19922;-84
2022/06/23 10:41:21;;;;;;;;;;;26.60;96.20;;;;;;5001207;28;20016;-85
2022/06/23 10:44:16;;;;;;;;;;;26.70;96.20;;;;;;5004921;28;19922;-83
2022/06/23 10:46:50;;;;;;;;;;;26.70;96.20;;;;;;4977044;28;19949;-84
2022/06/23 10:49:38;;;;;;;;;;;26.60;96.20;;;;;;5006405;28;19972;-84
2022/06/23 10:52:20;;;;;;;;;;;26.70;96.20;;;;;;4980511;28;20012;-85
2022/06/23 10:55:00;;;;;;;;;;;26.60;96.10;;;;;;5003656;28;19945;-85
2022/06/23 10:57:37;;;;;;;;;;;26.70;96.00;;;;;;5004294;28;19984;-84
2022/06/23 11:00:07;;;;;;;;;;;26.70;96.00;;;;;;5004518;28;19932;-84
2022/06/23 11:02:52;;;;;;;;;;;26.70;95.90;;;;;;5004480;28;19926;-84
2022/06/23 11:05:30;;;;;;;;;;;26.70;95.90;;;;;;5004048;28;20375;-84
2022/06/23 11:08:05;;;;;;;;;;;26.70;96.10;;;;;;5003236;28;19982;-84
2022/06/23 11:10:49;;;;;;;;;;;26.70;96.10;;;;;;5005350;28;19922;-84
2022/06/23 11:13:20;;;;;;;;;;;26.70;96.20;;;;;;5002044;28;20456;-84
2022/06/23 11:15:54;;;;;;;;;;;26.80;96.50;;;;;;5001539;28;19953;-85
2022/06/23 11:18:26;;;;;;;;;;;26.80;96.60;;;;;;5003470;28;20289;-84
2022/06/23 11:21:02;;;;;;;;;;;26.80;96.60;;;;;;5008030;28;19961;-84
2022/06/23 11:23:35;;;;;;;;;;;26.80;96.60;;;;;;5007198;28;19921;-85
2022/06/23 11:26:07;;;;;;;;;;;26.80;96.60;;;;;;5006636;28;19921;-84
2022/06/23 11:28:42;;;;;;;;;;;26.80;96.60;;;;;;5001436;28;20008;-84
2022/06/23 11:31:17;;;;;;;;;;;26.80;96.70;;;;;;5001939;28;20008;-84
2022/06/23 11:33:48;;;;;;;;;;;26.80;96.70;;;;;;5001364;28;20449;-83
2022/06/23 11:36:19;;;;;;;;;;;26.80;96.70;;;;;;5000572;28;19922;-83
2022/06/23 11:38:55;;;;;;;;;;;26.80;96.70;;;;;;5001479;28;20009;-83
2022/06/23 11:41:29;;;;;;;;;;;26.80;96.70;;;;;;5000126;28;20008;-84
2022/06/23 11:44:04;;;;;;;;;;;26.80;96.70;;;;;;4999414;28;19985;-83
2022/06/23 11:46:34;;;;;;;;;;;26.80;96.70;;;;;;4999904;28;20346;-83
2022/06/23 11:49:11;;;;;;;;;;;26.80;96.60;;;;;;4999035;28;20008;-83
2022/06/23 11:51:47;;;;;;;;;;;26.80;96.60;;;;;;5000278;28;20338;-83
2022/06/23 11:54:19;;;;;;;;;;;26.80;96.60;;;;;;5002910;28;19980;-83
2022/06/23 11:56:54;;;;;;;;;;;26.80;96.60;;;;;;5002498;28;19982;-81
2022/06/23 11:59:30;;;;;;;;;;;26.80;96.50;;;;;;5006938;28;20389;-82
2022/06/23 12:01:57;;;;;;;;;;;26.80;96.50;;;;;;5006447;28;19929;-81
2022/06/23 12:04:38;;;;;;;;;;;26.80;96.50;;;;;;5005581;28;19981;-81
2022/06/23 12:07:19;;;;;;;;;;;26.80;96.50;;;;;;5007583;28;19989;-81
2022/06/23 12:09:54;;;;;;;;;;;26.80;96.40;;;;;;5006631;28;19929;-81
2022/06/23 12:12:21;;;;;;;;;;;26.80;96.40;;;;;;5005548;28;20377;-81
2022/06/23 12:14:50;;;;;;;;;;;26.80;96.40;;;;;;5005597;28;20012;-81
2022/06/23 12:17:20;;;;;;;;;;;26.80;96.30;;;;;;5004852;28;20012;-80
2022/06/23 12:19:52;;;;;;;;;;;26.80;96.30;;;;;;5005725;28;19921;-80
2022/06/23 12:22:22;;;;;;;;;;;26.80;96.30;;;;;;5005979;28;19922;-80
2022/06/23 12:24:53;;;;;;;;;;;26.80;96.20;;;;;;5003649;28;19921;-82
2022/06/23 12:27:23;;;;;;;;;;;26.80;96.20;;;;;;5002505;28;19921;-82
2022/06/23 12:29:55;;;;;;;;;;;26.80;96.10;;;;;;5003195;28;20008;-84
2022/06/23 12:32:25;;;;;;;;;;;26.80;96.10;;;;;;5003180;28;20016;-85
2022/06/23 12:34:57;;;;;;;;;;;26.80;96.00;;;;;;5004130;28;19982;-84
2022/06/23 12:37:29;;;;;;;;;;;26.80;96.00;;;;;;5001713;28;20436;-83
2022/06/23 12:40:00;;;;;;;;;;;26.80;95.90;;;;;;5001854;28;20324;-84
2022/06/23 12:42:31;;;;;;;;;;;26.80;95.90;;;;;;5000314;28;19977;-87
2022/06/23 12:45:05;;;;;;;;;;;26.80;95.90;;;;;;4999154;28;20013;-85
2022/06/23 12:47:38;;;;;;;;;;;26.80;95.90;;;;;;4999670;28;19954;-85
2022/06/23 12:50:16;;;;;;;;;;;26.80;95.90;;;;;;4999354;28;19957;-85
2022/06/23 12:52:51;;;;;;;;;;;26.80;96.00;;;;;;4998202;28;20290;-85
2022/06/23 12:55:39;;;;;;;;;;;26.80;95.90;;;;;;4998731;28;20037;-85
2022/06/23 12:58:15;;;;;;;;;;;26.80;95.90;;;;;;4992645;28;20452;-85
2022/06/23 13:00:48;;;;;;;;;;;26.80;95.90;;;;;;4997654;28;20358;-85
2022/06/23 13:03:17;;;;;;;;;;;26.80;95.70;;;;;;4996945;28;20012;-86
2022/06/23 13:05:48;;;;;;;;;;;26.80;95.70;;;;;;4998421;28;20012;-85
2022/06/23 13:08:22;;;;;;;;;;;26.90;95.70;;;;;;4997874;28;19969;-85
2022/06/23 13:10:51;;;;;;;;;;;26.90;95.70;;;;;;4997587;28;20289;-85
2022/06/23 13:13:20;;;;;;;;;;;26.90;95.60;;;;;;4997818;28;20258;-85
2022/06/23 13:15:49;;;;;;;;;;;26.90;95.60;;;;;;4997310;28;20012;-85
2022/06/23 13:18:19;;;;;;;;;;;26.90;95.60;;;;;;4999276;28;20016;-85
2022/06/23 13:21:08;;;;;;;;;;;26.90;95.50;;;;;;4997539;28;20008;-85
2022/06/23 13:23:37;;;;;;;;;;;26.90;95.50;;;;;;4999014;28;20344;-85
2022/06/23 13:26:05;;;;;;;;;;;26.90;95.50;;;;;;4998229;28;19926;-85
2022/06/23 13:28:33;;;;;;;;;;;26.90;95.50;;;;;;4997410;28;19928;-85
2022/06/23 13:31:03;;;;;;;;;;;26.90;95.50;;;;;;4998675;28;20391;-84
2022/06/23 13:33:34;;;;;;;;;;;26.90;95.40;;;;;;4998595;28;19976;-85
2022/06/23 13:36:05;;;;;;;;;;;27.00;95.40;;;;;;4998824;28;19921;-85
2022/06/23 13:38:37;;;;;;;;;;;27.00;95.40;;;;;;4998527;28;19922;-84
2022/06/23 13:41:09;;;;;;;;;;;27.00;95.30;;;;;;4998709;28;20008;-85
2022/06/23 13:43:40;;;;;;;;;;;26.90;95.20;;;;;;4997441;28;19922;-84
2022/06/23 13:46:08;;;;;;;;;;;27.00;95.10;;;;;;4997262;28;19967;-85
2022/06/23 13:48:38;;;;;;;;;;;27.00;95.00;;;;;;4997403;28;20032;-85
2022/06/23 13:51:08;;;;;;;;;;;27.00;95.00;;;;;;4996860;28;19983;-85
2022/06/23 13:53:37;;;;;;;;;;;27.00;94.90;;;;;;4997649;28;19925;-85
2022/06/23 13:56:07;;;;;;;;;;;27.00;94.80;;;;;;4997763;28;19921;-85
2022/06/23 13:58:40;;;;;;;;;;;27.00;94.70;;;;;;4997370;28;19922;-85
2022/06/23 14:01:10;;;;;;;;;;;27.00;94.60;;;;;;4997361;28;20008;-85
2022/06/23 14:03:41;;;;;;;;;;;27.00;94.50;;;;;;4998050;28;19921;-84
2022/06/23 14:06:12;;;;;;;;;;;27.00;94.40;;;;;;4999475;28;20013;-84
2022/06/23 14:08:41;;;;;;;;;;;27.00;94.30;;;;;;5002603;28;19921;-87
2022/06/23 14:11:11;;;;;;;;;;;27.00;94.20;;;;;;5002052;28;20369;-86
2022/06/23 14:13:45;;;;;;;;;;;27.00;94.10;;;;;;5002993;28;19921;-86
2022/06/23 14:16:14;;;;;;;;;;;27.00;94.00;;;;;;5002532;28;20313;-86
2022/06/23 14:18:45;;;;;;;;;;;27.00;93.90;;;;;;5002864;28;19921;-86
2022/06/23 14:21:16;;;;;;;;;;;27.00;93.80;;;;;;5001243;28;19925;-86
2022/06/23 14:23:51;;;;;;;;;;;27.00;93.60;;;;;;5000817;28;19976;-85
2022/06/23 14:26:21;;;;;;;;;;;27.00;93.50;;;;;;5000156;28;20009;-85
2022/06/23 14:28:51;;;;;;;;;;;27.00;93.50;;;;;;5002182;28;20262;-85
2022/06/23 14:31:20;;;;;;;;;;;27.00;93.50;;;;;;5002001;28;19961;-86
2022/06/23 14:33:52;;;;;;;;;;;27.00;93.50;;;;;;5001728;28;19922;-86
2022/06/23 14:39:25;;;;;;;;;;;27.00;93.40;;;;;;4946864;28;19922;-85
2022/06/23 14:41:57;;;;;;;;;;;26.90;93.30;;;;;;4982435;28;19945;-84
2022/06/23 14:44:43;;;;;;;;;;;27.00;93.20;;;;;;4982069;28;19953;-85
2022/06/23 14:47:15;;;;;;;;;;;26.90;93.40;;;;;;4982199;28;19922;-85
2022/06/23 14:49:54;;;;;;;;;;;26.90;93.00;;;;;;4981762;28;19922;-85
2022/06/23 14:52:26;;;;;;;;;;;26.90;93.00;;;;;;4982115;28;19922;-85
2022/06/23 14:54:55;;;;;;;;;;;26.90;92.90;;;;;;4981793;28;19980;-85
2022/06/23 14:57:26;;;;;;;;;;;26.90;92.90;;;;;;4981900;28;19922;-85
2022/06/23 14:59:57;;;;;;;;;;;26.90;92.80;;;;;;4982345;28;19976;-84
2022/06/23 15:02:31;;;;;;;;;;;26.90;92.70;;;;;;4982211;28;20299;-85
2022/06/23 15:05:01;;;;;;;;;;;26.90;92.70;;;;;;4980824;28;19929;-85
2022/06/23 15:07:33;;;;;;;;;;;26.90;92.70;;;;;;4976151;28;19925;-84
2022/06/23 15:10:02;;;;;;;;;;;26.90;92.60;;;;;;4979374;28;19977;-84
2022/06/23 15:12:33;;;;;;;;;;;26.90;92.50;;;;;;4982550;28;19933;-84
2022/06/23 15:15:10;;;;;;;;;;;26.90;92.50;;;;;;4980304;28;19922;-83
2022/06/23 15:17:42;;;;;;;;;;;26.90;92.40;;;;;;4982115;28;19929;-87
2022/06/23 15:20:15;;;;;;;;;;;26.90;92.40;;;;;;4981582;28;20293;-85
2022/06/23 15:25:32;;;;;;;;;;;26.90;92.30;;;;;;4982279;28;20311;-85
2022/06/23 15:28:01;;;;;;;;;;;26.90;92.40;;;;;;4981350;28;19953;-87
2022/06/23 15:30:33;;;;;;;;;;;26.90;92.40;;;;;;4982158;28;19994;-87
2022/06/23 15:33:06;;;;;;;;;;;26.90;92.30;;;;;;4982654;28;19945;-88
2022/06/23 15:35:36;;;;;;;;;;;26.90;92.30;;;;;;4977096;28;19929;-86
2022/06/23 15:38:16;;;;;;;;;;;26.90;92.30;;;;;;4977592;28;19945;-86
2022/06/23 15:40:45;;;;;;;;;;;26.90;92.20;;;;;;4977567;28;19922;-87
2022/06/23 15:43:16;;;;;;;;;;;26.90;92.20;;;;;;4977524;28;20433;-87
2022/06/23 15:45:52;;;;;;;;;;;26.90;92.20;;;;;;4977717;28;19997;-86
2022/06/23 15:48:21;;;;;;;;;;;26.90;92.20;;;;;;4977001;28;20021;-84
2022/06/23 15:50:51;;;;;;;;;;;26.90;92.20;;;;;;4979345;28;20008;-86
2022/06/23 15:53:20;;;;;;;;;;;26.90;92.20;;;;;;4977481;28;20030;-85
2022/06/23 15:55:50;;;;;;;;;;;26.90;92.20;;;;;;4977947;28;19981;-85
2022/06/23 15:58:22;;;;;;;;;;;26.90;92.10;;;;;;4978518;28;19969;-86
2022/06/23 16:00:52;;;;;;;;;;;26.90;92.10;;;;;;4979266;28;19945;-85
2022/06/23 16:03:23;;;;;;;;;;;26.90;92.20;;;;;;4977912;28;19996;-84
2022/06/23 16:05:52;;;;;;;;;;;26.90;92.20;;;;;;4977551;28;20016;-85
2022/06/23 16:08:19;;;;;;;;;;;26.90;92.20;;;;;;4976304;28;19929;-85
2022/06/23 16:10:55;;;;;;;;;;;26.90;92.20;;;;;;4976599;28;20005;-85
2022/06/23 16:13:24;;;;;;;;;;;26.90;92.20;;;;;;4977672;28;20006;-86
2022/06/23 16:15:55;;;;;;;;;;;26.90;92.20;;;;;;4977669;28;19973;-85
2022/06/23 16:18:25;;;;;;;;;;;26.90;92.20;;;;;;4978991;28;20086;-85
2022/06/23 16:20:59;;;;;;;;;;;26.90;92.20;;;;;;4978275;28;19969;-85
2022/06/23 16:23:29;;;;;;;;;;;26.90;92.20;;;;;;4979755;28;20358;-85
2022/06/23 16:25:59;;;;;;;;;;;26.90;92.20;;;;;;4978032;28;19977;-85
2022/06/23 16:28:39;;;;;;;;;;;26.90;92.20;;;;;;4978412;28;19928;-85
2022/06/23 16:31:21;;;;;;;;;;;26.90;92.20;;;;;;4978446;28;19928;-86
2022/06/23 16:33:52;;;;;;;;;;;26.90;92.20;;;;;;4977733;28;20382;-85
2022/06/23 16:36:24;;;;;;;;;;;26.90;92.20;;;;;;4977670;28;19977;-85
2022/06/23 16:38:54;;;;;;;;;;;26.90;92.20;;;;;;4979619;28;19922;-85
2022/06/23 16:41:38;;;;;;;;;;;26.80;92.10;;;;;;4979559;28;19922;-85
2022/06/23 16:44:08;;;;;;;;;;;26.80;92.00;;;;;;4980244;28;19929;-85
2022/06/23 16:46:38;;;;;;;;;;;26.90;92.00;;;;;;4979873;28;20106;-85
2022/06/23 16:49:09;;;;;;;;;;;26.90;92.00;;;;;;4979080;28;20362;-84
2022/06/23 16:51:39;;;;;;;;;;;26.80;91.90;;;;;;4979235;28;20354;-85
2022/06/23 16:54:11;;;;;;;;;;;26.80;91.90;;;;;;4982695;28;20009;-85
2022/06/23 16:56:40;;;;;;;;;;;26.80;91.90;;;;;;4983949;28;19926;-85
2022/06/23 16:59:19;;;;;;;;;;;26.80;91.90;;;;;;4983969;28;19985;-85
2022/06/23 17:01:51;;;;;;;;;;;26.80;91.90;;;;;;4984293;28;20016;-84
2022/06/23 17:04:20;;;;;;;;;;;26.90;91.90;;;;;;4983981;28;20393;-84
2022/06/23 17:06:54;;;;;;;;;;;26.80;91.90;;;;;;4983996;28;20314;-84
2022/06/23 17:09:25;;;;;;;;;;;26.80;91.80;;;;;;4982796;28;20000;-84
2022/06/23 17:12:02;;;;;;;;;;;26.80;91.80;;;;;;4981735;28;19922;-84
2022/06/23 17:14:33;;;;;;;;;;;26.80;91.80;;;;;;4980882;28;20429;-84
2022/06/23 17:17:03;;;;;;;;;;;26.90;91.80;;;;;;4981424;28;19965;-84
2022/06/23 17:19:32;;;;;;;;;;;26.80;91.70;;;;;;4981945;28;20005;-84
2022/06/23 17:22:01;;;;;;;;;;;26.80;91.70;;;;;;4980712;28;20021;-84
2022/06/23 17:24:30;;;;;;;;;;;26.80;91.60;;;;;;4980904;28;20004;-85
2022/06/23 17:27:01;;;;;;;;;;;26.80;91.60;;;;;;4982815;28;19969;-85
2022/06/23 17:29:33;;;;;;;;;;;26.80;91.50;;;;;;4979803;28;19922;-86
2022/06/23 17:32:03;;;;;;;;;;;26.80;91.50;;;;;;4984226;28;19972;-83
2022/06/23 17:34:30;;;;;;;;;;;26.80;91.50;;;;;;4984260;28;19985;-85
2022/06/23 17:37:00;;;;;;;;;;;26.80;91.40;;;;;;4987212;28;19969;-84
2022/06/23 17:45:03;;;;;;;;;;;26.80;91.20;;;;;;4982177;28;19924;-84
2022/06/23 17:47:34;;;;;;;;;;;26.80;91.20;;;;;;4984278;28;19929;-84
2022/06/23 17:50:01;;;;;;;;;;;26.80;91.00;;;;;;4985531;28;19978;-84
2022/06/23 17:52:29;;;;;;;;;;;26.80;90.90;;;;;;4986573;28;19989;-84
2022/06/23 17:54:56;;;;;;;;;;;26.80;90.90;;;;;;4988080;28;19968;-84
2022/06/23 17:57:28;;;;;;;;;;;26.80;90.90;;;;;;4983796;28;20409;-82
2022/06/23 17:59:57;;;;;;;;;;;26.80;91.00;;;;;;4983566;28;19937;-84
2022/06/23 18:02:25;;;;;;;;;;;26.70;90.50;;;;;;4981499;28;19990;-83
2022/06/23 18:04:55;;;;;;;;;;;26.70;90.40;;;;;;4981666;28;19961;-85
2022/06/23 18:07:27;;;;;;;;;;;26.70;90.30;;;;;;4981948;28;19970;-85
2022/06/23 18:09:57;;;;;;;;;;;26.70;90.20;;;;;;4979361;28;20437;-83
2022/06/23 18:12:27;;;;;;;;;;;26.70;90.20;;;;;;4980648;28;19929;-81
2022/06/23 18:15:03;;;;;;;;;;;26.70;90.10;;;;;;4980101;28;19946;-83
2022/06/23 18:17:40;;;;;;;;;;;26.70;90.00;;;;;;4979501;28;19980;-84
2022/06/23 18:20:15;;;;;;;;;;;26.70;89.90;;;;;;4980224;28;19977;-85
2022/06/23 18:22:45;;;;;;;;;;;26.70;89.70;;;;;;4979331;28;19922;-80
2022/06/23 18:25:20;;;;;;;;;;;26.70;89.50;;;;;;4979619;28;20005;-83
2022/06/23 18:27:50;;;;;;;;;;;26.70;89.40;;;;;;4977918;28;19922;-87
2022/06/23 18:30:18;;;;;;;;;;;26.70;89.20;;;;;;4977566;28;20013;-84
2022/06/23 18:32:47;;;;;;;;;;;26.70;89.10;;;;;;4978959;28;19926;-84
2022/06/23 18:35:18;;;;;;;;;;;26.70;89.10;;;;;;4978700;28;19957;-85
2022/06/23 18:37:47;;;;;;;;;;;26.70;88.90;;;;;;4978210;28;20410;-85
2022/06/23 18:40:18;;;;;;;;;;;26.70;88.80;;;;;;4978160;28;19976;-84
2022/06/23 18:42:47;;;;;;;;;;;26.70;88.80;;;;;;4979131;28;20008;-85
2022/06/23 18:45:16;;;;;;;;;;;26.70;88.60;;;;;;4978876;28;20005;-85
2022/06/23 18:47:48;;;;;;;;;;;26.70;88.60;;;;;;4980322;28;20042;-84
2022/06/23 18:50:18;;;;;;;;;;;26.70;88.60;;;;;;4980738;28;20037;-84
2022/06/23 18:52:46;;;;;;;;;;;26.70;88.50;;;;;;4979702;28;20021;-85
2022/06/23 18:55:31;;;;;;;;;;;26.70;88.40;;;;;;4978563;28;19926;-85
2022/06/23 18:57:59;;;;;;;;;;;26.70;88.40;;;;;;4978040;28;20021;-82
2022/06/23 19:00:37;;;;;;;;;;;26.70;88.30;;;;;;4978314;28;20001;-83
2022/06/23 19:03:09;;;;;;;;;;;26.70;88.50;;;;;;4978884;28;19922;-83
2022/06/23 19:05:50;;;;;;;;;;;26.70;88.60;;;;;;4979422;28;20020;-83
2022/06/23 19:08:22;;;;;;;;;;;26.70;88.50;;;;;;4977903;28;19922;-83
2022/06/23 19:10:52;;;;;;;;;;;26.70;88.50;;;;;;4977887;28;19949;-83
2022/06/23 19:13:25;;;;;;;;;;;26.70;88.60;;;;;;4978007;28;19930;-83
2022/06/23 19:15:58;;;;;;;;;;;26.70;88.90;;;;;;4978301;28;20038;-83
2022/06/23 19:18:31;;;;;;;;;;;26.70;89.10;;;;;;4977689;28;20346;-83
2022/06/23 19:21:05;;;;;;;;;;;26.70;89.20;;;;;;4978965;28;20013;-84
2022/06/23 19:23:34;;;;;;;;;;;26.70;89.40;;;;;;4978134;28;20016;-83
2022/06/23 19:26:07;;;;;;;;;;;26.70;89.60;;;;;;4978290;28;20005;-83
2022/06/23 19:28:37;;;;;;;;;;;26.70;89.80;;;;;;4976855;28;20009;-83